createdAt,value
2019-04-23T00:02:47.715Z,57.70
2019-04-23T00:04:54.105Z,58.20
2019-04-23T00:07:51.851Z,58.50
2019-04-23T00:10:06.266Z,59.20
2019-04-23T00:12:44.067Z,59.30
2019-04-23T00:17:38.902Z,59.30
2019-04-23T00:20:06.190Z,59.70
2019-04-23T00:22:46.538Z,59.90
2019-04-23T00:25:44.986Z,59.50
2019-04-23T00:28:02.580Z,58.90
2019-04-23T00:30:36.547Z,59.20
2019-04-23T00:33:01.676Z,59.20
2019-04-23T00:35:29.122Z,58.70
2019-04-23T00:38:02.227Z,59.20
2019-04-23T00:40:35.376Z,59.80
2019-04-23T00:43:06.635Z,59.80
2019-04-23T00:48:12.596Z,60.10
2019-04-23T00:50:38.523Z,60.80
2019-04-23T00:53:07.511Z,61.10
2019-04-23T00:55:31.282Z,61.20
2019-04-23T00:58:10.408Z,61.90
2019-04-23T01:00:43.558Z,61.90
2019-04-23T01:03:07.476Z,62.30
2019-04-23T01:05:37.018Z,62.30
2019-04-23T01:08:06.277Z,62.40
2019-04-23T01:10:54.039Z,62.60
2019-04-23T01:13:14.863Z,62.80
2019-04-23T01:15:46.208Z,62.80
2019-04-23T01:18:18.454Z,62.80
2019-04-23T01:20:50.960Z,63.10
2019-04-23T01:23:16.036Z,63.00
2019-04-23T01:25:58.149Z,63.80
2019-04-23T01:28:45.833Z,63.50
2019-04-23T01:31:18.624Z,63.60
2019-04-23T01:33:46.168Z,63.90
2019-04-23T01:38:45.586Z,65.70
2019-04-23T01:41:14.570Z,66.60
2019-04-23T01:43:41.045Z,66.70
2019-04-23T01:46:12.906Z,66.60
2019-04-23T01:48:46.834Z,66.80
2019-04-23T01:51:08.152Z,67.20
2019-04-23T01:53:45.531Z,67.10
2019-04-23T01:56:11.147Z,67.50
2019-04-23T01:58:57.105Z,68.60
2019-04-23T02:01:34.302Z,69.10
2019-04-23T02:03:46.639Z,69.50
2019-04-23T02:06:13.571Z,70.30
2019-04-23T02:08:48.719Z,69.90
2019-04-23T02:11:11.513Z,70.30
2019-04-23T02:13:51.498Z,71.10
2019-04-23T02:16:19.399Z,72.40
2019-04-23T02:18:49.089Z,72.40
2019-04-23T02:21:15.265Z,72.30
2019-04-23T02:23:48.577Z,73.40
2019-04-23T02:26:22.786Z,74.70
2019-04-23T02:28:53.501Z,75.90
2019-04-23T02:31:44.602Z,77.10
2019-04-23T02:36:29.464Z,78.90
2019-04-23T02:39:02.824Z,80.20
2019-04-23T02:44:09.216Z,83.00
2019-04-23T02:46:13.237Z,85.20
2019-04-23T02:51:39.606Z,89.70
2019-04-23T02:59:04.266Z,92.30
2019-04-23T03:06:32.164Z,93.10
2019-04-23T03:11:34.359Z,94.00
2019-04-23T03:14:00.632Z,94.70
2019-04-23T03:16:46.289Z,94.80
2019-04-23T03:39:40.148Z,99.90
2019-04-23T03:41:59.566Z,99.90
2019-04-23T03:44:32.458Z,99.90
2019-04-23T03:49:33.281Z,99.90
2019-04-23T03:52:06.756Z,99.90
2019-04-23T03:57:17.043Z,99.90
2019-04-23T03:59:46.776Z,99.90
2019-04-23T04:02:15.520Z,99.90
2019-04-23T04:04:35.032Z,99.90
2019-04-23T04:07:30.772Z,99.90
2019-04-23T04:09:34.866Z,99.90
2019-04-23T04:12:07.877Z,99.90
2019-04-23T04:19:44.928Z,99.90
2019-04-23T04:24:37.821Z,99.90
2019-04-23T04:27:06.305Z,99.90
2019-04-23T04:32:00.340Z,99.90
2019-04-23T04:42:08.760Z,99.90
2019-04-23T04:44:43.505Z,99.90
2019-04-23T04:47:15.812Z,99.90
2019-04-23T04:49:44.389Z,99.90
2019-04-23T04:54:41.327Z,99.90
2019-04-23T04:57:12.909Z,99.90
2019-04-23T05:02:14.627Z,99.90
2019-04-23T05:04:55.835Z,99.90
2019-04-23T05:07:11.274Z,99.90
2019-04-23T05:09:47.612Z,99.90
2019-04-23T05:12:25.506Z,99.90
2019-04-23T05:14:44.825Z,99.90
2019-04-23T05:22:20.858Z,99.90
2019-04-23T05:27:29.279Z,99.90
2019-04-23T05:29:41.464Z,99.90
2019-04-23T05:32:04.451Z,99.90
2019-04-23T05:34:45.129Z,99.90
2019-04-23T05:37:11.645Z,99.90
2019-04-23T05:39:44.552Z,99.90
2019-04-23T05:42:11.225Z,99.90
2019-04-23T05:44:47.869Z,99.90
2019-04-23T05:49:45.433Z,99.90
2019-04-23T05:52:36.025Z,99.90
2019-04-23T05:54:49.893Z,99.90
2019-04-23T05:57:27.185Z,99.90
2019-04-23T06:02:18.259Z,99.90
2019-04-23T06:04:43.060Z,99.90
2019-04-23T06:09:46.591Z,99.90
2019-04-23T06:12:15.666Z,99.90
2019-04-23T06:17:22.918Z,99.90
2019-04-23T06:19:49.818Z,99.90
2019-04-23T06:27:24.452Z,99.90
2019-04-23T06:29:51.543Z,99.90
2019-04-23T06:32:19.627Z,99.90
2019-04-23T06:37:36.134Z,99.90
2019-04-23T06:39:50.352Z,99.90
2019-04-23T06:42:18.137Z,99.90
2019-04-23T06:44:57.929Z,99.90
2019-04-23T06:47:36.142Z,99.90
2019-04-23T06:50:08.524Z,99.90
2019-04-23T06:52:21.688Z,99.90
2019-04-23T06:55:08.782Z,99.90
2019-04-23T06:57:22.356Z,99.90
2019-04-23T06:59:55.098Z,99.90
2019-04-23T07:02:25.847Z,99.90
2019-04-23T07:10:15.819Z,99.90
2019-04-23T07:12:36.480Z,99.90
2019-04-23T07:14:59.588Z,99.90
2019-04-23T07:17:24.695Z,99.90
2019-04-23T07:20:12.796Z,99.90
2019-04-23T07:22:45.436Z,99.90
2019-04-23T07:25:00.333Z,99.90
2019-04-23T07:27:25.769Z,99.90
2019-04-23T07:30:03.966Z,99.90
2019-04-23T07:32:30.624Z,99.90
2019-04-23T07:37:32.304Z,98.60
2019-04-23T07:42:55.170Z,98.00
2019-04-23T07:45:24.010Z,98.10
2019-04-23T07:50:43.849Z,97.70
2019-04-23T07:58:22.180Z,96.60
2019-04-23T08:08:12.196Z,95.60
2019-04-23T08:11:03.030Z,95.50
2019-04-23T08:13:24.226Z,94.60
2019-04-23T08:15:49.833Z,94.10
2019-04-23T08:18:18.034Z,93.40
2019-04-23T08:20:49.143Z,93.00
2019-04-23T08:23:31.987Z,92.80
2019-04-23T08:26:19.475Z,92.70
2019-04-23T08:28:52.093Z,92.60
2019-04-23T08:31:07.758Z,92.20
2019-04-23T08:33:41.985Z,92.60
2019-04-23T08:36:12.363Z,92.80
2019-04-23T08:41:21.493Z,91.10
2019-04-23T08:43:51.747Z,91.20
2019-04-23T08:46:26.648Z,90.60
2019-04-23T08:53:51.298Z,90.00
2019-04-23T08:56:24.100Z,89.80
2019-04-23T08:58:49.328Z,89.00
2019-04-23T09:01:50.228Z,89.10
2019-04-23T09:03:45.924Z,88.20
2019-04-23T09:06:21.742Z,87.60
2019-04-23T09:08:50.405Z,88.50
2019-04-23T09:11:35.815Z,87.70
2019-04-23T09:13:57.551Z,87.50
2019-04-23T09:16:27.314Z,86.30
2019-04-23T09:18:52.820Z,87.30
2019-04-23T09:21:23.983Z,85.10
2019-04-23T09:23:51.721Z,84.50
2019-04-23T09:26:22.711Z,85.10
2019-04-23T09:28:56.706Z,84.20
2019-04-23T09:31:55.459Z,83.50
2019-04-23T09:36:51.084Z,84.90
2019-04-23T09:39:35.093Z,83.90
2019-04-23T09:42:08.911Z,82.50
2019-04-23T09:44:58.341Z,83.30
2019-04-23T09:47:47.422Z,84.80
2019-04-23T09:50:16.009Z,85.20
2019-04-23T09:52:52.705Z,84.90
2019-04-23T09:57:47.122Z,83.40
2019-04-23T10:00:18.711Z,81.40
2019-04-23T10:02:34.294Z,81.50
2019-04-23T10:05:02.934Z,82.80
2019-04-23T10:07:27.011Z,82.50
2019-04-23T10:09:47.819Z,82.00
2019-04-23T10:12:17.749Z,81.70
2019-04-23T10:14:58.744Z,83.60
2019-04-23T10:17:17.975Z,82.00
2019-04-23T10:19:46.720Z,81.70
2019-04-23T10:22:15.302Z,82.20
2019-04-23T10:24:45.445Z,81.00
2019-04-23T10:27:14.850Z,81.30
2019-04-23T10:29:43.866Z,80.10
2019-04-23T10:32:13.601Z,79.20
2019-04-23T10:34:52.180Z,78.80
2019-04-23T10:37:13.594Z,76.70
2019-04-23T10:39:46.883Z,79.00
2019-04-23T10:42:14.080Z,77.10
2019-04-23T10:44:50.418Z,77.90
2019-04-23T10:48:11.631Z,78.30
2019-04-23T10:53:28.377Z,78.00
2019-04-23T10:58:17.317Z,76.50
2019-04-23T11:00:46.640Z,77.50
2019-04-23T11:03:33.507Z,75.50
2019-04-23T11:08:17.606Z,76.30
2019-04-23T11:10:46.726Z,75.10
2019-04-23T11:13:25.717Z,77.30
2019-04-23T11:16:11.087Z,74.80
2019-04-23T11:18:24.611Z,73.70
2019-04-23T11:21:12.020Z,74.80
2019-04-23T11:23:27.627Z,74.00
2019-04-23T11:25:48.451Z,74.80
2019-04-23T11:28:30.369Z,75.90
2019-04-23T11:30:54.392Z,74.30
2019-04-23T11:33:35.672Z,73.90
2019-04-23T11:41:05.770Z,70.90
2019-04-23T11:46:05.911Z,71.70
2019-04-23T11:51:39.379Z,71.80
2019-04-23T11:53:41.258Z,73.50
2019-04-23T11:56:09.188Z,69.30
2019-04-23T11:58:39.637Z,70.50
2019-04-23T12:04:00.322Z,70.40
2019-04-23T12:06:52.466Z,69.30
2019-04-23T12:12:08.228Z,69.80
2019-04-23T12:22:18.039Z,67.50
2019-04-23T12:25:06.502Z,67.80
2019-04-23T12:27:17.225Z,69.50
2019-04-23T12:29:52.375Z,68.00
2019-04-23T12:37:34.665Z,68.50
2019-04-23T12:40:05.922Z,68.80
2019-04-23T12:45:16.864Z,67.70
2019-04-23T13:00:09.903Z,66.60
2019-04-23T13:02:44.213Z,65.80
2019-04-23T13:05:11.663Z,64.70
2019-04-23T13:10:17.511Z,64.40
2019-04-23T13:12:48.009Z,64.80
2019-04-23T13:15:09.073Z,64.00
2019-04-23T13:17:50.563Z,65.00
2019-04-23T13:25:20.164Z,63.30
2019-04-23T13:28:02.760Z,62.60
2019-04-23T13:35:40.692Z,61.10
2019-04-23T13:40:40.205Z,58.40
2019-04-23T13:48:02.213Z,59.50
2019-04-23T13:50:37.482Z,58.00
2019-04-23T13:53:18.177Z,59.20
2019-04-23T13:55:24.807Z,58.40
2019-04-23T14:01:18.576Z,60.00
2019-04-23T14:03:38.153Z,57.80
2019-04-23T14:06:18.075Z,57.70
2019-04-23T14:08:47.462Z,58.40
2019-04-23T14:16:22.773Z,58.80
2019-04-23T14:18:56.207Z,60.20
2019-04-23T14:24:04.559Z,57.90
2019-04-23T14:26:25.475Z,58.60
2019-04-23T14:28:41.777Z,61.00
2019-04-23T14:36:17.663Z,58.70
2019-04-23T14:38:43.714Z,58.40
2019-04-23T14:43:48.788Z,59.00
2019-04-23T14:46:38.480Z,57.70
2019-04-23T14:48:53.273Z,57.60
2019-04-23T14:51:30.922Z,57.80
2019-04-23T14:58:58.235Z,57.10
2019-04-23T15:01:35.373Z,58.40
2019-04-23T15:13:49.440Z,55.80
2019-04-23T15:16:28.288Z,57.10
2019-04-23T15:24:03.977Z,58.10
2019-04-23T15:27:22.263Z,56.90
2019-04-23T15:28:35.848Z,57.60
2019-04-23T15:31:26.839Z,57.10
2019-04-23T15:34:02.223Z,56.40
2019-04-23T15:36:59.398Z,56.40
2019-04-23T15:39:05.805Z,57.00
2019-04-23T15:41:34.600Z,56.80
2019-04-23T15:44:06.061Z,56.90
2019-04-23T15:49:07.266Z,57.40
2019-04-23T15:54:05.164Z,58.60
2019-04-23T15:56:35.633Z,59.30
2019-04-23T15:59:16.618Z,57.70
2019-04-23T16:01:35.088Z,57.50
2019-04-23T16:03:31.994Z,58.40
2019-04-23T16:06:02.584Z,58.40
2019-04-23T16:09:04.866Z,59.40
2019-04-23T16:11:41.268Z,59.30
2019-04-23T16:14:17.693Z,60.40
2019-04-23T16:16:37.406Z,59.10
2019-04-23T16:19:17.640Z,59.90
2019-04-23T16:21:47.401Z,60.60
2019-04-23T16:24:13.595Z,60.30
2019-04-23T16:26:52.381Z,60.30
2019-04-23T16:29:25.832Z,60.50
2019-04-23T16:31:39.892Z,61.70
2019-04-23T16:34:25.713Z,60.40
2019-04-23T16:36:55.855Z,62.10
2019-04-23T16:39:18.669Z,61.40
2019-04-23T16:41:54.324Z,62.80
2019-04-23T16:44:36.670Z,61.90
2019-04-23T16:47:00.398Z,61.50
2019-04-23T16:51:47.474Z,62.20
2019-04-23T16:54:26.731Z,62.70
2019-04-23T16:57:14.233Z,63.30
2019-04-23T16:59:24.232Z,62.80
2019-04-23T17:02:01.742Z,62.30
2019-04-23T17:04:24.871Z,63.00
2019-04-23T17:09:29.069Z,63.20
2019-04-23T17:11:59.455Z,63.60
2019-04-23T17:16:49.957Z,63.90
2019-04-23T17:22:02.856Z,64.40
2019-04-23T17:27:05.488Z,64.10
2019-04-23T17:29:28.265Z,63.90
2019-04-23T17:31:56.676Z,65.70
2019-04-23T17:34:50.133Z,65.70
2019-04-23T17:37:17.828Z,64.90
2019-04-23T17:39:31.192Z,66.50
2019-04-23T17:47:23.996Z,65.70
2019-04-23T17:49:55.640Z,66.20
2019-04-23T17:52:18.522Z,65.90
2019-04-23T17:54:51.549Z,65.50
2019-04-23T17:57:15.268Z,65.40
2019-04-23T18:00:04.880Z,65.90
2019-04-23T18:02:49.668Z,65.80
2019-04-23T18:07:32.271Z,66.70
2019-04-23T18:10:00.147Z,67.70
2019-04-23T18:12:35.520Z,67.90
2019-04-23T18:14:52.797Z,68.20
2019-04-23T18:17:26.733Z,69.00
2019-04-23T18:20:08.302Z,69.60
2019-04-23T18:27:38.427Z,69.80
2019-04-23T18:30:08.172Z,70.40
2019-04-23T18:32:43.395Z,70.40
2019-04-23T18:37:44.293Z,71.60
2019-04-23T18:40:03.619Z,71.60
2019-04-23T18:45:14.768Z,72.10
2019-04-23T18:47:45.790Z,72.50
2019-04-23T18:50:12.378Z,72.80
2019-04-23T18:52:50.756Z,73.20
2019-04-23T18:55:16.650Z,73.50
2019-04-23T18:57:46.484Z,73.70
2019-04-23T19:00:21.363Z,73.70
2019-04-23T19:02:51.800Z,73.60
2019-04-23T19:08:01.521Z,73.90
2019-04-23T19:13:07.678Z,75.10
2019-04-23T19:15:39.634Z,74.70
2019-04-23T19:17:56.455Z,75.30
2019-04-23T19:20:53.842Z,75.70
2019-04-23T19:23:26.010Z,76.10
2019-04-23T19:28:25.641Z,77.30
2019-04-23T19:30:46.161Z,77.20
2019-04-23T19:33:14.206Z,77.30
2019-04-23T19:38:13.522Z,77.70
2019-04-23T19:40:52.028Z,77.90
2019-04-23T19:43:19.348Z,78.00
2019-04-23T19:48:25.331Z,79.10
2019-04-23T19:51:03.146Z,79.70
2019-04-23T19:53:32.284Z,79.70
2019-04-23T19:55:59.675Z,80.20
2019-04-23T19:58:25.639Z,80.70
2019-04-23T20:01:03.750Z,80.90
2019-04-23T20:05:54.395Z,83.10
2019-04-23T20:10:48.182Z,85.10
2019-04-23T20:13:33.109Z,85.10
2019-04-23T20:18:25.233Z,87.00
2019-04-23T20:20:57.539Z,88.60
2019-04-23T20:23:40.386Z,89.10
2019-04-23T20:26:13.719Z,90.30
2019-04-23T20:39:12.137Z,93.10
2019-04-23T20:42:02.654Z,93.30
2019-04-23T20:44:35.036Z,93.50
2019-04-23T20:47:04.262Z,94.50
2019-04-23T20:49:31.793Z,95.80
2019-04-23T20:52:00.112Z,96.80
2019-04-23T20:54:36.200Z,97.20
2019-04-23T20:57:24.935Z,98.00
2019-04-23T20:59:49.794Z,98.90
2019-04-23T21:02:28.334Z,99.70
2019-04-23T21:04:57.306Z,99.90
2019-04-23T21:07:37.708Z,99.90
2019-04-23T21:10:00.417Z,99.90
2019-04-23T21:12:29.649Z,99.90
2019-04-23T21:17:26.958Z,99.30
2019-04-23T21:19:59.526Z,99.10
2019-04-23T21:24:56.615Z,99.90
2019-04-23T21:30:00.581Z,99.90
2019-04-23T21:32:33.444Z,99.90
2019-04-23T21:35:04.640Z,99.90
2019-04-23T21:37:37.221Z,99.90
2019-04-23T21:40:26.795Z,99.90
2019-04-23T21:42:54.681Z,99.90
2019-04-23T21:45:13.615Z,99.90
2019-04-23T21:47:53.421Z,99.90
2019-04-23T21:50:23.165Z,99.90
2019-04-23T21:52:51.031Z,99.90
2019-04-23T21:55:09.792Z,99.90
2019-04-23T21:57:53.713Z,99.90
2019-04-23T22:00:13.898Z,99.90
2019-04-23T22:05:17.490Z,99.90
2019-04-23T22:07:51.896Z,99.90
2019-04-23T22:12:57.808Z,99.90
2019-04-23T22:15:13.078Z,99.90
2019-04-23T22:17:44.607Z,99.90
2019-04-23T22:22:56.348Z,99.90
2019-04-23T22:25:13.161Z,99.90
2019-04-23T22:27:52.939Z,99.90
2019-04-23T22:30:21.459Z,99.90
2019-04-23T22:32:56.207Z,99.80
2019-04-23T22:35:14.131Z,99.10
2019-04-23T22:40:14.919Z,98.90
2019-04-23T22:45:17.321Z,98.40
2019-04-23T22:50:18.616Z,98.10
2019-04-23T22:52:53.969Z,97.90
2019-04-23T22:55:15.645Z,98.00
2019-04-23T23:05:53.517Z,97.90
2019-04-23T23:08:10.707Z,98.10
2019-04-23T23:10:42.582Z,97.80
2019-04-23T23:15:43.817Z,97.70
2019-04-23T23:18:13.978Z,97.70
2019-04-23T23:23:11.232Z,98.00
2019-04-23T23:25:41.484Z,98.00
2019-04-23T23:28:12.133Z,97.50
2019-04-23T23:30:49.356Z,97.30
2019-04-23T23:33:12.990Z,96.90
2019-04-23T23:35:44.469Z,97.00
2019-04-23T23:38:21.526Z,97.00
2019-04-23T23:40:51.149Z,97.30
2019-04-23T23:43:23.447Z,97.60
2019-04-23T23:48:12.763Z,97.50
2019-04-23T23:55:50.850Z,98.50
